sensor_id;sensor_type;location;lat;lon;timestamp;pressure;altitude;pressure_sealevel;temperature;humidity
13581;BME280;6861;46.170;7.222;2023-07-28T00:00:39;95570.44;;;22.09;46.19
13581;BME280;6861;46.170;7.222;2023-07-28T00:03:09;95570.44;;;22.09;45.84
13581;BME280;6861;46.170;7.222;2023-07-28T00:05:37;95570.16;;;22.14;46.22
13581;BME280;6861;46.170;7.222;2023-07-28T00:08:05;95559.56;;;22.18;45.80
13581;BME280;6861;46.170;7.222;2023-07-28T00:10:39;95550.97;;;22.24;45.12
13581;BME280;6861;46.170;7.222;2023-07-28T00:13:08;95560.41;;;22.22;45.52
13581;BME280;6861;46.170;7.222;2023-07-28T00:15:36;95571.59;;;22.28;45.42
13581;BME280;6861;46.170;7.222;2023-07-28T00:18:04;95563.25;;;22.29;45.17
13581;BME280;6861;46.170;7.222;2023-07-28T00:20:33;95560.66;;;22.33;44.55
13581;BME280;6861;46.170;7.222;2023-07-28T00:23:01;95560.22;;;22.31;44.44
13581;BME280;6861;46.170;7.222;2023-07-28T00:25:29;95555.16;;;22.26;45.27
13581;BME280;6861;46.170;7.222;2023-07-28T00:27:59;95564.97;;;22.21;44.81
13581;BME280;6861;46.170;7.222;2023-07-28T00:30:27;95565.69;;;22.18;45.11
13581;BME280;6861;46.170;7.222;2023-07-28T00:32:55;95569.19;;;22.22;45.33
13581;BME280;6861;46.170;7.222;2023-07-28T00:35:24;95569.63;;;22.24;45.44
13581;BME280;6861;46.170;7.222;2023-07-28T00:37:52;95569.19;;;22.22;45.53
13581;BME280;6861;46.170;7.222;2023-07-28T00:40:21;95569.28;;;22.26;45.21
13581;BME280;6861;46.170;7.222;2023-07-28T00:42:50;95567.03;;;22.28;45.18
13581;BME280;6861;46.170;7.222;2023-07-28T00:45:20;95572.44;;;22.32;44.83
13581;BME280;6861;46.170;7.222;2023-07-28T00:47:48;95578.47;;;22.29;45.11
13581;BME280;6861;46.170;7.222;2023-07-28T00:50:17;95571.09;;;22.22;46.04
13581;BME280;6861;46.170;7.222;2023-07-28T00:52:46;95576.69;;;22.17;46.61
13581;BME280;6861;46.170;7.222;2023-07-28T00:55:16;95577.72;;;22.12;46.47
13581;BME280;6861;46.170;7.222;2023-07-28T00:57:44;95580.22;;;22.05;46.71
13581;BME280;6861;46.170;7.222;2023-07-28T01:00:13;95590.28;;;21.96;46.95
13581;BME280;6861;46.170;7.222;2023-07-28T01:02:43;95592.09;;;21.92;47.27
13581;BME280;6861;46.170;7.222;2023-07-28T01:05:11;95595.00;;;21.87;47.19
13581;BME280;6861;46.170;7.222;2023-07-28T01:07:44;95589.53;;;21.80;47.76
13581;BME280;6861;46.170;7.222;2023-07-28T01:10:18;95591.31;;;21.76;47.88
13581;BME280;6861;46.170;7.222;2023-07-28T01:12:46;95594.00;;;21.76;47.73
13581;BME280;6861;46.170;7.222;2023-07-28T01:15:14;95596.66;;;21.76;47.53
13581;BME280;6861;46.170;7.222;2023-07-28T01:17:44;95602.41;;;21.78;47.11
13581;BME280;6861;46.170;7.222;2023-07-28T01:20:12;95610.06;;;21.79;47.25
13581;BME280;6861;46.170;7.222;2023-07-28T01:23:02;95615.38;;;21.79;47.50
13581;BME280;6861;46.170;7.222;2023-07-28T01:25:43;95616.16;;;21.80;47.78
13581;BME280;6861;46.170;7.222;2023-07-28T01:28:17;95609.28;;;21.79;47.56
13581;BME280;6861;46.170;7.222;2023-07-28T01:30:46;95612.63;;;21.76;48.14
13581;BME280;6861;46.170;7.222;2023-07-28T01:33:14;95609.53;;;21.74;47.82
13581;BME280;6861;46.170;7.222;2023-07-28T01:35:42;95620.63;;;21.76;47.94
13581;BME280;6861;46.170;7.222;2023-07-28T01:38:10;95616.16;;;21.80;47.36
13581;BME280;6861;46.170;7.222;2023-07-28T01:40:40;95620.78;;;21.83;47.66
13581;BME280;6861;46.170;7.222;2023-07-28T01:43:08;95616.59;;;21.82;47.91
13581;BME280;6861;46.170;7.222;2023-07-28T01:45:37;95618.47;;;21.81;48.43
13581;BME280;6861;46.170;7.222;2023-07-28T01:48:06;95610.84;;;21.80;48.08
13581;BME280;6861;46.170;7.222;2023-07-28T01:50:36;95611.94;;;21.79;48.18
13581;BME280;6861;46.170;7.222;2023-07-28T01:53:05;95620.78;;;21.83;48.23
13581;BME280;6861;46.170;7.222;2023-07-28T01:55:33;95622.34;;;21.84;48.76
13581;BME280;6861;46.170;7.222;2023-07-28T01:58:02;95613.84;;;21.78;48.93
13581;BME280;6861;46.170;7.222;2023-07-28T02:00:30;95620.97;;;21.74;49.04
13581;BME280;6861;46.170;7.222;2023-07-28T02:03:00;95625.19;;;21.75;49.16
13581;BME280;6861;46.170;7.222;2023-07-28T02:05:30;95621.06;;;21.78;49.54
13581;BME280;6861;46.170;7.222;2023-07-28T02:07:59;95619.94;;;21.79;49.42
13581;BME280;6861;46.170;7.222;2023-07-28T02:10:28;95619.50;;;21.77;49.23
13581;BME280;6861;46.170;7.222;2023-07-28T02:12:56;95619.06;;;21.75;49.14
13581;BME280;6861;46.170;7.222;2023-07-28T02:15:25;95625.09;;;21.72;49.06
13581;BME280;6861;46.170;7.222;2023-07-28T02:17:53;95618.56;;;21.69;49.28
13581;BME280;6861;46.170;7.222;2023-07-28T02:20:22;95609.66;;;21.62;49.23
13581;BME280;6861;46.170;7.222;2023-07-28T02:22:51;95604.25;;;21.58;49.49
13581;BME280;6861;46.170;7.222;2023-07-28T02:25:19;95610.25;;;21.55;49.41
13581;BME280;6861;46.170;7.222;2023-07-28T02:27:47;95605.69;;;21.55;49.67
13581;BME280;6861;46.170;7.222;2023-07-28T02:30:15;95609.06;;;21.52;49.75
13581;BME280;6861;46.170;7.222;2023-07-28T02:32:44;95607.94;;;21.53;49.43
13581;BME280;6861;46.170;7.222;2023-07-28T02:35:12;95611.88;;;21.59;49.52
13581;BME280;6861;46.170;7.222;2023-07-28T02:37:41;95617.22;;;21.59;49.19
13581;BME280;6861;46.170;7.222;2023-07-28T02:40:10;95608.03;;;21.57;49.09
13581;BME280;6861;46.170;7.222;2023-07-28T02:42:39;95607.94;;;21.53;48.94
13581;BME280;6861;46.170;7.222;2023-07-28T02:45:08;95603.28;;;21.50;49.02
13581;BME280;6861;46.170;7.222;2023-07-28T02:47:37;95603.22;;;21.47;48.71
13581;BME280;6861;46.170;7.222;2023-07-28T02:50:06;95607.66;;;21.43;48.99
13581;BME280;6861;46.170;7.222;2023-07-28T02:52:34;95601.38;;;21.35;49.01
13581;BME280;6861;46.170;7.222;2023-07-28T02:55:04;95606.19;;;21.30;48.83
13581;BME280;6861;46.170;7.222;2023-07-28T02:57:32;95613.06;;;21.31;48.74
13581;BME280;6861;46.170;7.222;2023-07-28T03:00:01;95610.50;;;21.34;48.45
13581;BME280;6861;46.170;7.222;2023-07-28T03:02:31;95607.16;;;21.37;48.15
13581;BME280;6861;46.170;7.222;2023-07-28T03:04:59;95611.34;;;21.38;48.12
13581;BME280;6861;46.170;7.222;2023-07-28T03:07:28;95614.78;;;21.39;48.49
13581;BME280;6861;46.170;7.222;2023-07-28T03:09:57;95619.00;;;21.40;48.56
13581;BME280;6861;46.170;7.222;2023-07-28T03:12:26;95615.56;;;21.39;49.42
13581;BME280;6861;46.170;7.222;2023-07-28T03:14:55;95605.16;;;21.34;49.31
13581;BME280;6861;46.170;7.222;2023-07-28T03:17:23;95612.53;;;21.25;50.09
13581;BME280;6861;46.170;7.222;2023-07-28T03:19:52;95616.88;;;21.17;50.48
13581;BME280;6861;46.170;7.222;2023-07-28T03:22:20;95610.69;;;21.13;51.02
13581;BME280;6861;46.170;7.222;2023-07-28T03:24:48;95609.28;;;21.04;51.27
13581;BME280;6861;46.170;7.222;2023-07-28T03:27:16;95607.44;;;20.92;51.55
13581;BME280;6861;46.170;7.222;2023-07-28T03:29:46;95608.38;;;20.84;51.82
13581;BME280;6861;46.170;7.222;2023-07-28T03:32:14;95604.44;;;20.78;52.24
13581;BME280;6861;46.170;7.222;2023-07-28T03:34:42;95596.69;;;20.73;52.42
13581;BME280;6861;46.170;7.222;2023-07-28T03:37:11;95590.41;;;20.65;52.59
13581;BME280;6861;46.170;7.222;2023-07-28T03:39:39;95588.84;;;20.64;52.07
13581;BME280;6861;46.170;7.222;2023-07-28T03:42:07;95586.63;;;20.66;51.43
13581;BME280;6861;46.170;7.222;2023-07-28T03:44:35;95591.28;;;20.69;51.47
13581;BME280;6861;46.170;7.222;2023-07-28T03:47:06;95595.47;;;20.70;51.79
13581;BME280;6861;46.170;7.222;2023-07-28T03:49:34;95607.22;;;20.69;52.11
13581;BME280;6861;46.170;7.222;2023-07-28T03:52:03;95612.34;;;20.62;52.62
13581;BME280;6861;46.170;7.222;2023-07-28T03:54:31;95614.38;;;20.53;52.77
13581;BME280;6861;46.170;7.222;2023-07-28T03:56:59;95614.59;;;20.48;52.93
13581;BME280;6861;46.170;7.222;2023-07-28T03:59:27;95625.56;;;20.46;53.17
13581;BME280;6861;46.170;7.222;2023-07-28T04:01:55;95624.78;;;20.46;53.37
13581;BME280;6861;46.170;7.222;2023-07-28T04:04:25;95626.34;;;20.47;53.41
13581;BME280;6861;46.170;7.222;2023-07-28T04:06:53;95633.97;;;20.48;53.48
13581;BME280;6861;46.170;7.222;2023-07-28T04:09:21;95629.00;;;20.47;53.40
13581;BME280;6861;46.170;7.222;2023-07-28T04:11:50;95628.56;;;20.45;53.47
13581;BME280;6861;46.170;7.222;2023-07-28T04:14:18;95629.56;;;20.40;53.20
13581;BME280;6861;46.170;7.222;2023-07-28T04:16:46;95624.59;;;20.39;53.51
13581;BME280;6861;46.170;7.222;2023-07-28T04:19:14;95628.47;;;20.41;53.20
13581;BME280;6861;46.170;7.222;2023-07-28T04:21:44;95630.34;;;20.41;53.31
13581;BME280;6861;46.170;7.222;2023-07-28T04:24:12;95631.44;;;20.40;53.02
13581;BME280;6861;46.170;7.222;2023-07-28T04:26:41;95634.53;;;20.42;52.77
13581;BME280;6861;46.170;7.222;2023-07-28T04:29:09;95638.31;;;20.41;52.33
13581;BME280;6861;46.170;7.222;2023-07-28T04:31:38;95634.66;;;20.45;52.37
13581;BME280;6861;46.170;7.222;2023-07-28T04:34:06;95622.56;;;20.48;51.70
13581;BME280;6861;46.170;7.222;2023-07-28T04:36:34;95615.81;;;20.50;51.50
13581;BME280;6861;46.170;7.222;2023-07-28T04:39:04;95619.78;;;20.56;51.27
13581;BME280;6861;46.170;7.222;2023-07-28T04:41:32;95618.34;;;20.59;50.99
13581;BME280;6861;46.170;7.222;2023-07-28T04:44:01;95624.88;;;20.61;51.44
13581;BME280;6861;46.170;7.222;2023-07-28T04:46:29;95627.63;;;20.65;51.44
13581;BME280;6861;46.170;7.222;2023-07-28T04:48:58;95620.75;;;20.64;51.75
13581;BME280;6861;46.170;7.222;2023-07-28T04:51:26;95624.88;;;20.61;51.80
13581;BME280;6861;46.170;7.222;2023-07-28T04:53:54;95631.19;;;20.57;51.91
13581;BME280;6861;46.170;7.222;2023-07-28T04:56:24;95645.59;;;20.56;51.79
13581;BME280;6861;46.170;7.222;2023-07-28T04:58:52;95652.47;;;20.57;51.94
13581;BME280;6861;46.170;7.222;2023-07-28T05:01:20;95654.78;;;20.58;51.72
13581;BME280;6861;46.170;7.222;2023-07-28T05:03:48;95639.59;;;20.59;51.54
13581;BME280;6861;46.170;7.222;2023-07-28T05:06:17;95645.25;;;20.57;51.48
13581;BME280;6861;46.170;7.222;2023-07-28T05:08:45;95634.97;;;20.56;51.35
13581;BME280;6861;46.170;7.222;2023-07-28T05:11:14;95642.94;;;20.56;51.13
13581;BME280;6861;46.170;7.222;2023-07-28T05:13:44;95655.56;;;20.59;51.24
13581;BME280;6861;46.170;7.222;2023-07-28T05:16:12;95657.88;;;20.60;51.51
13581;BME280;6861;46.170;7.222;2023-07-28T05:18:40;95669.97;;;20.58;51.71
13581;BME280;6861;46.170;7.222;2023-07-28T05:21:09;95669.06;;;20.54;51.61
13581;BME280;6861;46.170;7.222;2023-07-28T05:23:37;95662.78;;;20.46;51.99
13581;BME280;6861;46.170;7.222;2023-07-28T05:26:05;95667.88;;;20.39;52.37
13581;BME280;6861;46.170;7.222;2023-07-28T05:28:34;95667.75;;;20.36;52.07
13581;BME280;6861;46.170;7.222;2023-07-28T05:31:07;95672.41;;;20.39;52.16
13581;BME280;6861;46.170;7.222;2023-07-28T05:33:38;95676.41;;;20.45;52.17
13581;BME280;6861;46.170;7.222;2023-07-28T05:36:07;95681.25;;;20.55;51.91
13581;BME280;6861;46.170;7.222;2023-07-28T05:38:35;95686.91;;;20.66;51.93
13581;BME280;6861;46.170;7.222;2023-07-28T05:41:03;95683.66;;;20.72;52.33
13581;BME280;6861;46.170;7.222;2023-07-28T05:43:32;95677.34;;;20.77;52.30
13581;BME280;6861;46.170;7.222;2023-07-28T05:46:01;95679.56;;;20.75;52.06
13581;BME280;6861;46.170;7.222;2023-07-28T05:48:31;95678.13;;;20.77;52.39
13581;BME280;6861;46.170;7.222;2023-07-28T05:50:59;95683.16;;;20.82;52.32
13581;BME280;6861;46.170;7.222;2023-07-28T05:53:27;95685.94;;;20.86;52.15
13581;BME280;6861;46.170;7.222;2023-07-28T05:55:56;95678.38;;;20.88;51.99
13581;BME280;6861;46.170;7.222;2023-07-28T05:58:24;95680.03;;;20.92;51.95
13581;BME280;6861;46.170;7.222;2023-07-28T06:00:52;95676.47;;;21.01;51.74
13581;BME280;6861;46.170;7.222;2023-07-28T06:03:21;95683.53;;;21.09;51.51
13581;BME280;6861;46.170;7.222;2023-07-28T06:05:51;95682.50;;;21.25;51.77
13581;BME280;6861;46.170;7.222;2023-07-28T06:08:20;95677.66;;;21.43;51.68
13581;BME280;6861;46.170;7.222;2023-07-28T06:10:48;95674.25;;;21.58;51.34
13581;BME280;6861;46.170;7.222;2023-07-28T06:13:16;95673.56;;;21.77;51.06
13581;BME280;6861;46.170;7.222;2023-07-28T06:15:44;95679.94;;;22.04;51.19
13581;BME280;6861;46.170;7.222;2023-07-28T06:18:13;95680.69;;;22.36;50.31
13581;BME280;6861;46.170;7.222;2023-07-28T06:20:42;95669.47;;;22.81;49.97
13581;BME280;6861;46.170;7.222;2023-07-28T06:23:11;95678.06;;;23.10;48.69
13581;BME280;6861;46.170;7.222;2023-07-28T06:25:40;95678.75;;;23.07;48.70
13581;BME280;6861;46.170;7.222;2023-07-28T06:28:11;95678.34;;;23.05;48.63
13581;BME280;6861;46.170;7.222;2023-07-28T06:30:39;95681.16;;;23.12;47.83
13581;BME280;6861;46.170;7.222;2023-07-28T06:33:09;95680.09;;;23.36;47.74
13581;BME280;6861;46.170;7.222;2023-07-28T06:35:38;95671.69;;;23.57;47.53
13581;BME280;6861;46.170;7.222;2023-07-28T06:38:06;95677.88;;;23.83;46.92
13581;BME280;6861;46.170;7.222;2023-07-28T06:40:36;95682.63;;;24.16;46.28
13581;BME280;6861;46.170;7.222;2023-07-28T06:43:04;95683.72;;;24.38;45.96
13581;BME280;6861;46.170;7.222;2023-07-28T06:45:34;95677.09;;;24.55;45.22
13581;BME280;6861;46.170;7.222;2023-07-28T06:48:02;95682.59;;;24.66;44.77
13581;BME280;6861;46.170;7.222;2023-07-28T06:50:31;95676.56;;;24.72;44.69
13581;BME280;6861;46.170;7.222;2023-07-28T06:53:00;95677.16;;;24.89;44.55
13581;BME280;6861;46.170;7.222;2023-07-28T06:55:28;95674.72;;;25.06;44.18
13581;BME280;6861;46.170;7.222;2023-07-28T06:57:57;95676.78;;;25.20;43.97
13581;BME280;6861;46.170;7.222;2023-07-28T07:00:26;95673.78;;;25.25;43.96
13581;BME280;6861;46.170;7.222;2023-07-28T07:02:54;95676.94;;;25.34;43.54
13581;BME280;6861;46.170;7.222;2023-07-28T07:05:22;95697.34;;;25.46;43.52
13581;BME280;6861;46.170;7.222;2023-07-28T07:07:50;95690.56;;;25.56;43.41
13581;BME280;6861;46.170;7.222;2023-07-28T07:10:19;95688.38;;;25.65;43.14
13581;BME280;6861;46.170;7.222;2023-07-28T07:12:48;95685.03;;;25.75;42.49
13581;BME280;6861;46.170;7.222;2023-07-28T07:15:18;95687.03;;;25.85;42.03
13581;BME280;6861;46.170;7.222;2023-07-28T07:17:46;95681.00;;;25.95;41.50
13581;BME280;6861;46.170;7.222;2023-07-28T07:20:14;95673.34;;;25.97;41.44
13581;BME280;6861;46.170;7.222;2023-07-28T07:22:43;95676.47;;;26.06;41.06
13581;BME280;6861;46.170;7.222;2023-07-28T07:25:11;95675.38;;;26.14;40.76
13581;BME280;6861;46.170;7.222;2023-07-28T07:27:39;95679.31;;;26.28;40.36
13581;BME280;6861;46.170;7.222;2023-07-28T07:30:09;95672.22;;;26.50;40.45
13581;BME280;6861;46.170;7.222;2023-07-28T07:32:38;95681.19;;;26.75;40.50
13581;BME280;6861;46.170;7.222;2023-07-28T07:35:08;95688.50;;;26.89;40.02
13581;BME280;6861;46.170;7.222;2023-07-28T07:37:37;95675.56;;;27.05;39.83
13581;BME280;6861;46.170;7.222;2023-07-28T07:40:06;95675.25;;;27.24;39.45
13581;BME280;6861;46.170;7.222;2023-07-28T07:42:41;95674.91;;;27.36;39.12
13581;BME280;6861;46.170;7.222;2023-07-28T07:45:11;95681.84;;;27.45;38.88
13581;BME280;6861;46.170;7.222;2023-07-28T07:47:41;95673.78;;;27.41;38.08
13581;BME280;6861;46.170;7.222;2023-07-28T07:50:10;95668.75;;;27.25;38.47
13581;BME280;6861;46.170;7.222;2023-07-28T07:52:39;95682.84;;;27.01;38.17
13581;BME280;6861;46.170;7.222;2023-07-28T07:55:09;95685.41;;;26.80;38.15
13581;BME280;6861;46.170;7.222;2023-07-28T07:57:38;95693.78;;;26.67;39.02
13581;BME280;6861;46.170;7.222;2023-07-28T08:00:08;95694.50;;;26.57;39.07
13581;BME280;6861;46.170;7.222;2023-07-28T08:02:38;95701.72;;;26.46;39.16
13581;BME280;6861;46.170;7.222;2023-07-28T08:05:09;95698.19;;;26.35;39.79
13581;BME280;6861;46.170;7.222;2023-07-28T08:07:38;95693.03;;;26.16;39.97
13581;BME280;6861;46.170;7.222;2023-07-28T08:10:07;95690.97;;;25.95;40.17
13581;BME280;6861;46.170;7.222;2023-07-28T08:12:35;95687.78;;;25.82;40.60
13581;BME280;6861;46.170;7.222;2023-07-28T08:15:04;95685.38;;;25.70;41.15
13581;BME280;6861;46.170;7.222;2023-07-28T08:17:32;95687.53;;;25.61;41.68
13581;BME280;6861;46.170;7.222;2023-07-28T08:20:00;95687.47;;;25.54;41.99
13581;BME280;6861;46.170;7.222;2023-07-28T08:22:30;95692.75;;;25.46;41.53
13581;BME280;6861;46.170;7.222;2023-07-28T08:24:59;95691.53;;;25.40;41.55
13581;BME280;6861;46.170;7.222;2023-07-28T08:27:27;95689.59;;;25.37;41.76
13581;BME280;6861;46.170;7.222;2023-07-28T08:29:55;95692.63;;;25.36;42.05
13581;BME280;6861;46.170;7.222;2023-07-28T08:32:24;95698.75;;;25.36;42.09
13581;BME280;6861;46.170;7.222;2023-07-28T08:34:52;95684.97;;;25.34;41.95
13581;BME280;6861;46.170;7.222;2023-07-28T08:37:20;95684.22;;;25.37;42.09
13581;BME280;6861;46.170;7.222;2023-07-28T08:39:50;95687.41;;;25.46;42.08
13581;BME280;6861;46.170;7.222;2023-07-28T08:42:18;95684.56;;;25.66;41.74
13581;BME280;6861;46.170;7.222;2023-07-28T08:44:48;95678.72;;;25.97;41.45
13581;BME280;6861;46.170;7.222;2023-07-28T08:47:19;95674.78;;;26.32;41.55
13581;BME280;6861;46.170;7.222;2023-07-28T08:49:48;95675.34;;;26.62;40.85
13581;BME280;6861;46.170;7.222;2023-07-28T08:52:17;95680.09;;;26.94;41.07
13581;BME280;6861;46.170;7.222;2023-07-28T08:54:45;95676.78;;;27.18;40.55
13581;BME280;6861;46.170;7.222;2023-07-28T08:57:15;95664.56;;;27.38;40.76
13581;BME280;6861;46.170;7.222;2023-07-28T08:59:46;95659.22;;;27.53;39.67
13581;BME280;6861;46.170;7.222;2023-07-28T09:02:16;95657.69;;;27.59;39.75
13581;BME280;6861;46.170;7.222;2023-07-28T09:04:47;95654.28;;;27.62;39.86
13581;BME280;6861;46.170;7.222;2023-07-28T09:07:16;95654.66;;;27.67;40.20
13581;BME280;6861;46.170;7.222;2023-07-28T09:09:44;95654.28;;;27.69;39.79
13581;BME280;6861;46.170;7.222;2023-07-28T09:12:13;95661.19;;;27.63;40.20
13581;BME280;6861;46.170;7.222;2023-07-28T09:14:42;95657.28;;;27.46;40.14
13581;BME280;6861;46.170;7.222;2023-07-28T09:17:12;95660.69;;;27.25;40.09
13581;BME280;6861;46.170;7.222;2023-07-28T09:19:51;95644.50;;;27.07;40.05
13581;BME280;6861;46.170;7.222;2023-07-28T09:22:20;95645.56;;;26.92;40.75
13581;BME280;6861;46.170;7.222;2023-07-28T09:24:48;95638.63;;;26.88;41.39
13581;BME280;6861;46.170;7.222;2023-07-28T09:27:22;95645.56;;;26.89;41.32
13581;BME280;6861;46.170;7.222;2023-07-28T09:29:54;95638.66;;;26.95;41.61
13581;BME280;6861;46.170;7.222;2023-07-28T09:32:29;95633.38;;;27.05;41.27
13581;BME280;6861;46.170;7.222;2023-07-28T09:35:07;95638.78;;;27.23;41.58
13581;BME280;6861;46.170;7.222;2023-07-28T09:37:38;95631.56;;;27.41;41.19
13581;BME280;6861;46.170;7.222;2023-07-28T09:40:08;95624.69;;;27.62;40.75
13581;BME280;6861;46.170;7.222;2023-07-28T09:42:39;95632.75;;;27.80;41.21
13581;BME280;6861;46.170;7.222;2023-07-28T09:45:10;95628.16;;;27.91;40.22
13581;BME280;6861;46.170;7.222;2023-07-28T09:47:58;95623.53;;;28.05;40.22
13581;BME280;6861;46.170;7.222;2023-07-28T09:50:32;95620.84;;;28.16;39.58
13581;BME280;6861;46.170;7.222;2023-07-28T09:53:02;95623.94;;;28.25;39.90
13581;BME280;6861;46.170;7.222;2023-07-28T09:55:31;95627.75;;;28.28;39.29
13581;BME280;6861;46.170;7.222;2023-07-28T09:58:04;95621.22;;;28.36;40.01
13581;BME280;6861;46.170;7.222;2023-07-28T10:00:35;95615.06;;;28.39;39.75
13581;BME280;6861;46.170;7.222;2023-07-28T10:03:04;95622.00;;;28.33;40.32
13581;BME280;6861;46.170;7.222;2023-07-28T10:05:33;95611.63;;;28.31;40.38
13581;BME280;6861;46.170;7.222;2023-07-28T10:08:03;95609.69;;;28.32;40.41
13581;BME280;6861;46.170;7.222;2023-07-28T10:10:33;95611.59;;;28.35;40.58
13581;BME280;6861;46.170;7.222;2023-07-28T10:13:02;95615.06;;;28.39;40.94
13581;BME280;6861;46.170;7.222;2023-07-28T10:15:32;95611.97;;;28.44;40.30
13581;BME280;6861;46.170;7.222;2023-07-28T10:18:01;95622.72;;;28.51;40.46
13581;BME280;6861;46.170;7.222;2023-07-28T10:20:32;95610.41;;;28.57;40.29
13581;BME280;6861;46.170;7.222;2023-07-28T10:23:05;95619.25;;;28.58;40.59
13581;BME280;6861;46.170;7.222;2023-07-28T10:25:35;95620.41;;;28.57;41.12
13581;BME280;6861;46.170;7.222;2023-07-28T10:28:04;95606.56;;;28.58;40.93
13581;BME280;6861;46.170;7.222;2023-07-28T10:30:37;95606.50;;;28.62;40.80
13581;BME280;6861;46.170;7.222;2023-07-28T10:33:26;95610.34;;;28.64;41.16
13581;BME280;6861;46.170;7.222;2023-07-28T10:35:54;95606.13;;;28.63;41.29
13581;BME280;6861;46.170;7.222;2023-07-28T10:38:33;95603.47;;;28.60;40.89
13581;BME280;6861;46.170;7.222;2023-07-28T10:41:07;95609.25;;;28.58;41.18
13581;BME280;6861;46.170;7.222;2023-07-28T10:43:36;95611.94;;;28.58;40.76
13581;BME280;6861;46.170;7.222;2023-07-28T10:46:05;95601.16;;;28.58;40.98
13581;BME280;6861;46.170;7.222;2023-07-28T10:48:36;95604.63;;;28.55;40.81
13581;BME280;6861;46.170;7.222;2023-07-28T10:51:06;95593.13;;;28.51;41.30
13581;BME280;6861;46.170;7.222;2023-07-28T10:53:34;95589.63;;;28.54;40.93
13581;BME280;6861;46.170;7.222;2023-07-28T10:56:03;95604.19;;;28.67;41.18
13581;BME280;6861;46.170;7.222;2023-07-28T10:58:34;95595.69;;;28.80;40.82
13581;BME280;6861;46.170;7.222;2023-07-28T11:01:03;95585.69;;;28.84;40.99
13581;BME280;6861;46.170;7.222;2023-07-28T11:03:32;95581.06;;;28.84;40.73
13581;BME280;6861;46.170;7.222;2023-07-28T11:06:05;95580.63;;;28.93;41.20
13581;BME280;6861;46.170;7.222;2023-07-28T11:08:33;95587.91;;;29.03;41.00
13581;BME280;6861;46.170;7.222;2023-07-28T11:11:04;95580.94;;;29.13;41.00
13581;BME280;6861;46.170;7.222;2023-07-28T11:13:34;95579.31;;;29.22;40.55
13581;BME280;6861;46.170;7.222;2023-07-28T11:16:05;95565.47;;;29.20;40.33
13581;BME280;6861;46.170;7.222;2023-07-28T11:18:34;95567.44;;;29.16;39.98
13581;BME280;6861;46.170;7.222;2023-07-28T11:21:02;95567.88;;;29.04;39.97
13581;BME280;6861;46.170;7.222;2023-07-28T11:23:32;95559.06;;;29.00;40.48
13581;BME280;6861;46.170;7.222;2023-07-28T11:26:01;95565.63;;;28.95;40.44
13581;BME280;6861;46.170;7.222;2023-07-28T11:28:29;95552.91;;;28.96;40.71
13581;BME280;6861;46.170;7.222;2023-07-28T11:30:59;95551.75;;;28.97;40.65
13581;BME280;6861;46.170;7.222;2023-07-28T11:33:28;95554.06;;;28.95;40.70
13581;BME280;6861;46.170;7.222;2023-07-28T11:35:56;95555.25;;;28.94;40.72
13581;BME280;6861;46.170;7.222;2023-07-28T11:38:25;95560.63;;;28.94;40.69
13581;BME280;6861;46.170;7.222;2023-07-28T11:40:57;95563.69;;;28.96;40.54
13581;BME280;6861;46.170;7.222;2023-07-28T11:43:26;95564.84;;;28.95;41.01
13581;BME280;6861;46.170;7.222;2023-07-28T11:45:54;95561.00;;;28.96;41.22
13581;BME280;6861;46.170;7.222;2023-07-28T11:48:23;95558.69;;;28.98;41.11
13581;BME280;6861;46.170;7.222;2023-07-28T11:50:51;95555.63;;;28.96;41.16
13581;BME280;6861;46.170;7.222;2023-07-28T11:53:22;95558.69;;;28.98;40.96
13581;BME280;6861;46.170;7.222;2023-07-28T11:55:52;95558.69;;;28.98;40.96
13581;BME280;6861;46.170;7.222;2023-07-28T11:58:23;95552.53;;;28.97;41.05
13581;BME280;6861;46.170;7.222;2023-07-28T12:00:52;95558.69;;;28.98;40.60
13581;BME280;6861;46.170;7.222;2023-07-28T12:03:29;95556.72;;;29.02;41.03
13581;BME280;6861;46.170;7.222;2023-07-28T12:06:04;95556.31;;;29.07;40.86
13581;BME280;6861;46.170;7.222;2023-07-28T12:08:39;95550.94;;;29.07;41.00
13581;BME280;6861;46.170;7.222;2023-07-28T12:11:12;95550.88;;;29.14;41.28
13581;BME280;6861;46.170;7.222;2023-07-28T12:13:49;95551.63;;;29.22;40.91
13581;BME280;6861;46.170;7.222;2023-07-28T12:16:39;95550.81;;;29.28;40.58
13581;BME280;6861;46.170;7.222;2023-07-28T12:19:11;95553.50;;;29.28;40.32
13581;BME280;6861;46.170;7.222;2023-07-28T12:21:39;95550.47;;;29.19;39.90
13581;BME280;6861;46.170;7.222;2023-07-28T12:24:08;95555.13;;;29.15;39.87
13581;BME280;6861;46.170;7.222;2023-07-28T12:26:36;95550.50;;;29.12;40.30
13581;BME280;6861;46.170;7.222;2023-07-28T12:29:08;95544.72;;;29.14;40.06
13581;BME280;6861;46.170;7.222;2023-07-28T12:31:38;95543.19;;;29.16;40.31
13581;BME280;6861;46.170;7.222;2023-07-28T12:34:10;95531.56;;;29.26;41.15
13581;BME280;6861;46.170;7.222;2023-07-28T12:36:51;95536.22;;;29.22;40.19
13581;BME280;6861;46.170;7.222;2023-07-28T12:39:21;95531.63;;;29.16;39.70
13581;BME280;6861;46.170;7.222;2023-07-28T12:41:53;95527.41;;;29.15;40.58
13581;BME280;6861;46.170;7.222;2023-07-28T12:44:25;95528.53;;;29.21;40.60
13581;BME280;6861;46.170;7.222;2023-07-28T12:46:56;95526.16;;;29.26;40.48
13581;BME280;6861;46.170;7.222;2023-07-28T12:49:25;95531.13;;;29.35;40.51
13581;BME280;6861;46.170;7.222;2023-07-28T12:51:53;95530.69;;;29.44;40.49
13581;BME280;6861;46.170;7.222;2023-07-28T12:54:24;95529.81;;;29.54;40.34
13581;BME280;6861;46.170;7.222;2023-07-28T12:56:53;95528.97;;;29.64;40.05
13581;BME280;6861;46.170;7.222;2023-07-28T12:59:25;95519.28;;;29.70;39.90
13581;BME280;6861;46.170;7.222;2023-07-28T13:01:55;95527.31;;;29.77;39.14
13581;BME280;6861;46.170;7.222;2023-07-28T13:04:23;95515.72;;;29.80;38.99
13581;BME280;6861;46.170;7.222;2023-07-28T13:06:51;95513.38;;;29.82;38.63
13581;BME280;6861;46.170;7.222;2023-07-28T13:09:39;95508.72;;;29.86;38.99
13581;BME280;6861;46.170;7.222;2023-07-28T13:12:08;95505.97;;;29.93;38.42
13581;BME280;6861;46.170;7.222;2023-07-28T13:14:41;95515.53;;;30.02;38.40
13581;BME280;6861;46.170;7.222;2023-07-28T13:17:09;95507.38;;;30.09;38.30
13581;BME280;6861;46.170;7.222;2023-07-28T13:19:38;95520.06;;;30.12;38.17
13581;BME280;6861;46.170;7.222;2023-07-28T13:22:07;95516.19;;;30.13;37.92